AirNav   Air Wisconsin pilot careers
 
 1056 users online  

N20 Ine Airport
Arno Atoll, Marshall Islands


FAA INFORMATION EFFECTIVE 09 NOVEMBER 2017

Location

FAA Identifier: N20
Lat/Long: 07-01-00.0000N / 171-29-00.0000E
07-01.000000N / 171-29.000000E
7.0166667 / 171.4833333
(estimated)
Elevation: 4 ft. / 1 m (estimated)
Variation: 10E (1985)
Time zone: UTC +12 (year round; does not observe DST)

Airport Operations

Airport use: Open to the public
Activation date: 06/1983
Control tower: no
ARTCC: HONOLULU CONTROL FACILITY CENTER
FSS: HONOLULU FLIGHT SERVICE STATION
NOTAMs facility: HNL (NOTAM-D service available)
Attendance: ON CALL
Segmented circle: no

Airport Communications

CTAF: 122.9

Nearby radio navigation aids

NDB name  Hdg/Dist  Freq  Var  ID
MAJURO093/13.131610EMAJ -- .- .---

Airport Services

Runway Information

Runway 8/26

Dimensions: 2450 x 50 ft. / 747 x 15 m
Surface: gravel
CORAL.
RUNWAY 8  RUNWAY 26
Traffic pattern: leftleft

Airport Ownership and Management from official FAA records

Ownership: Publicly-owned
Owner: TRUST TERR OF PC IS
TRUST TERR OF PACIFIC IS
SAIPAN MARIANA IS 96950
Phone SAIPAN 9731
Manager: YWAO ELANZO
DEPT OF TRANS. MARSHALLS DIST
TRUST TERR OF PACIFIC IS

Instrument Procedures

There are no published instrument procedures at N20.

Some nearby airports with instrument procedures:

PKMJ - Marshall Islands International Airport (13 nm W)
 
Loc | Ops | Rwys | IFR | FBO | Links
Com | Nav | Svcs | Stats | Notes


 
Aerial photo
No photo
 
Airport distance calculator
Flying to Ine Airport? Find the distance to fly.

From to N20

Sunrise and sunset
Times for 19-Nov-2017
 Local
(UTC+12)
 Zulu
(UTC)
Morning civil twilight06:0518:05
Sunrise06:2718:27
Sunset18:1206:12
Evening civil twilight18:3406:34

Current date and time
Zulu (UTC)  18-Nov-2017 16:53:37
Local (UTC+12)  19-Nov-2017 04:53:37
 
METAR
PKMJ 
14nm W 
180051Z 04009KT 15SM FEW015 SCT050 BKN300 31/26 A2974 RMK LAST
PKMR 
17nm W 
181551Z 13010KT 5SM SHRA BKN014TCU BKN045 OVC110 27/25 A2970 RMK SHRAB34 TCU ALQDS SLP061 T02660250
TAF
PKMJ 
14nm W 
181133Z 1812/1912 08011KT P6SM VCSH SCT015 SCT050 TEMPO 1812/1816 5SM SHRA BKN015 BKN050
NOTAMs
Click for the latest NOTAMs
NOTAMs are issued by the DoD/FAA and will open in a separate window not controlled by AirNav.

 

 
 

Would you like to see your business listed on this page?

 If your business provides an interesting product or service to pilots, flight crews, aircraft, or users of the Ine Airport, you should consider listing it here.  To start the listing process, click on the button below
 
Add a business
 

Other Pages about Ine Airport

Update a link
 
Copyright © AirNav, LLC. All rights reserved. Privacy Policy  Contact